Flight Track Log - Related Links

Times and Time Zones

All times are in EST time to prevent confusion due to time zone crossing. See the AMF1324 flight status page for this flight to view local times or setup timezone preferences in your user account.

Time Position Orientation Groundspeed Altitude Reporting Facility
EST Latitude Longitude Course Direction KTS MPH feet Rate Location/Type
Wed 08:13:42 AM 42.2572 -76.1186 292° West 174 200 8,100  Level Cleveland Center
Wed 08:14:44 AM 42.2781 -76.1803 295° West 179 206 10,000 1,839 Climbing Cleveland Center
Wed 08:15:46 AM 42.2975 -76.2500 291° West 193 222 11,900 960 Climbing Cleveland Center
Wed 08:16:49 AM 42.3164 -76.3475 285° West 223 257 12,000 48 Climbing Cleveland Center
Wed 08:17:51 AM 42.3372 -76.4314 289° West 239 275 12,000  Level Cleveland Center
Wed 08:18:53 AM 42.3606 -76.5131 291° West 237 273 12,000  Level Cleveland Center
Wed 08:19:55 AM 42.3853 -76.5950 292° West 235 270 12,000  Level Cleveland Center
Wed 08:20:57 AM 42.4094 -76.6772 292° West 235 270 12,000  Level Cleveland Center
Wed 08:21:59 AM 42.4369 -76.7769 291° West 237 273 12,000  Level Cleveland Center
Wed 08:23:00 AM 42.4815 -76.8364 315° West  Level FlightAware Approximate
Wed 08:24:03 AM 42.4944 -76.9336 315° West 236 272 12,000  Level Cleveland Center
Wed 08:25:05 AM 42.5197 -77.0122 294° West 230 265 12,000 -48 Level Cleveland Center
Wed 08:26:07 AM 42.5508 -77.0883 299° West 231 266 11,900  Descending Cleveland Center
Wed 08:27:09 AM 42.5783 -77.1647 296° West 229 264 12,000 48 Climbing Cleveland Center
Wed 08:28:12 AM 42.6139 -77.2567 298° West 231 266 12,000  Level Cleveland Center
Wed 08:29:14 AM 42.6414 -77.3342 296° West 230 265 12,000  Level Cleveland Center
Wed 08:30:16 AM 42.6725 -77.4086 300° West 228 262 12,000 -71 Level Cleveland Center
Wed 08:30:39 AM 42.6892 -77.4450 302° West 224 258 11,900  Descending Cleveland Center
Wed 08:31:18 AM 42.7056 -77.4800 303° West 226 260 12,000 59 Climbing Cleveland Center
Wed 08:32:20 AM 42.7394 -77.5497 304° West 225 259 12,000 -53 Level Cleveland Center
Wed 08:33:11 AM 42.7794 -77.6153 310° West 223 257 11,900  Descending Cleveland Center
Wed 08:33:22 AM 42.7847 -77.6289 298° West 224 258 12,000 -91 Climbing Cleveland Center
Wed 08:34:17 AM 42.8192 -77.6950 305° West 227 261 11,800 -194 Descending Cleveland Center
Wed 08:34:24 AM 42.8181 -77.6983 246° West 222 255 11,800 -870 Level Cleveland Center
Wed 08:35:26 AM 42.8306 -77.7889 281° West 255 293 10,800 -1,161 Descending Cleveland Center
Wed 08:36:28 AM 42.8364 -77.9050 274° West 272 313 9,400 -1,258 Descending Cleveland Center
Wed 08:37:30 AM 42.8475 -77.9986 279° West 241 277 8,200 -1,210 Descending Cleveland Center
Wed 08:38:32 AM 42.8544 -78.0928 276° West 239 275 6,900 -1,056 Descending Cleveland Center
Wed 08:39:35 AM 42.8681 -78.1828 282° West 232 267 6,000 -864 Descending Cleveland Center
Wed 08:40:37 AM 42.8897 -78.2650 290° West 224 258 5,100 -823 Descending Cleveland Center
Wed 08:41:39 AM 42.9064 -78.3408 287° West 218 251 4,300 -532 Descending Cleveland Center
Wed 08:42:41 AM 42.9275 -78.4117 292° West 195 224 4,000 -435 Descending Cleveland Center
Wed 08:43:43 AM 42.9458 -78.4806 290° West 188 216 3,400 -484 Descending Cleveland Center
Wed 08:44:45 AM 42.9589 -78.5550 283° West 195 224 3,000 -435 Descending Cleveland Center
Wed 08:45:47 AM 42.9675 -78.6183 281° West 164 189 2,500 -520 Descending Cleveland Center
Wed 08:46:52 AM 42.9667 -78.6667 269° West 98 113 1,900 -576 Descending Buffalo TRACON
Wed 08:47:52 AM 42.9667 -78.7000 270° West 112 129 1,300 -600 Descending Buffalo TRACON
Wed 08:49:00 AM 42.9333 -78.7167 270° West  Level FlightAware Approximate
Wed 08:56:00 AM 42.9404 -78.7306 270° West  Level Estimated

Login

Don't have an account? Register now (free) for customized features, flight alerts, and more!